»·PEaware :: DAL5768 KSLC-KSLE

DAL5768 :: KSLC-KSLE

FLIGHT INFORMATION

Flight Status: Arrived
Operator:
Delta Air Lines
More flights by this operator :: More flights under this callsign
Pilot: Jeremy L. (7993)
Aircraft: BOEING 737-800
(B738)
More flights by this aircraft type
Origin: KSLC Salt Lake City Intl
United States
Destination: KSLE McNary
United States
More flights between these airports :: More routes between these airports
Route: TWF3 TWF J15 BOI DSD UBG
File this flight plan on PilotEdge
Remarks:
Altitude:
(Current/Filed)
38,000ft
Speed:
(Current/Filed)
413kts
Departed: 02-Aug-17 07:31 PM
Arrived: 02-Aug-17 09:12 PM
Distance/Time
Traveled:
544nm/1:41
Distance/Time
To Go:
Arrived

Flight Plot

Page will automatically refresh every two minutes.

Flight plan parsing failed; only flown route is shown


Map Options




Map Legend


Flown Route
Filed Route
Departure Airport
Arrival Airport
Navaid (VOR, NDB)
Fix

Horizontal Profiles

Position Reports

Time Latitude Longitude Heading Altitude Ground
Speed
02-Aug-17 18:50 40.787747 -111.981027 282 4235ft 0kts
02-Aug-17 18:51 40.787747 -111.981027 282 4235ft 0kts
02-Aug-17 18:52 40.787747 -111.981027 282 4235ft 0kts
02-Aug-17 18:53 40.787747 -111.981027 282 4235ft 0kts
02-Aug-17 18:54 40.787747 -111.981027 282 4235ft 0kts
02-Aug-17 18:55 40.787747 -111.981027 282 4235ft 0kts
02-Aug-17 18:56 40.787747 -111.981027 282 4235ft 0kts
02-Aug-17 18:57 40.787747 -111.981027 282 4235ft 0kts
02-Aug-17 18:58 40.787747 -111.981027 282 4235ft 0kts
02-Aug-17 18:59 40.787747 -111.981027 282 4235ft 0kts
02-Aug-17 19:00 40.787747 -111.981027 282 4235ft 0kts
02-Aug-17 19:01 40.787747 -111.981027 282 4235ft 0kts
02-Aug-17 19:02 40.787747 -111.981027 282 4235ft 0kts
02-Aug-17 19:03 40.787747 -111.981027 282 4235ft 0kts
02-Aug-17 19:04 40.787747 -111.981027 282 4235ft 0kts
02-Aug-17 19:05 40.787747 -111.981027 282 4235ft 0kts
02-Aug-17 19:06 40.787747 -111.981027 282 4235ft 0kts
02-Aug-17 19:07 40.787747 -111.981027 282 4235ft 0kts
02-Aug-17 19:08 40.787747 -111.981027 282 4235ft 0kts
02-Aug-17 19:09 40.787747 -111.981027 282 4235ft 0kts
02-Aug-17 19:10 40.787747 -111.981027 282 4235ft 0kts
02-Aug-17 19:11 40.787747 -111.981027 282 4235ft 0kts
02-Aug-17 19:12 40.787747 -111.981027 282 4235ft 0kts
02-Aug-17 19:13 40.787747 -111.981027 282 4235ft 0kts
02-Aug-17 19:14 40.787747 -111.981027 282 4235ft 0kts
02-Aug-17 19:15 40.787747 -111.981027 282 4235ft 0kts
02-Aug-17 19:16 40.787747 -111.981027 282 4235ft 0kts
02-Aug-17 19:17 40.787747 -111.981027 282 4235ft 0kts
02-Aug-17 19:18 40.787747 -111.981027 282 4235ft 0kts
02-Aug-17 19:19 40.787747 -111.981027 282 4235ft 0kts
02-Aug-17 19:20 40.787656 -111.980484 282 4235ft 2kts
02-Aug-17 19:21 40.787585 -111.980064 282 4235ft 0kts
02-Aug-17 19:22 40.787585 -111.980064 282 4235ft 0kts
02-Aug-17 19:23 40.787585 -111.980064 282 4235ft 0kts
02-Aug-17 19:24 40.787668 -111.980160 342 4235ft 4kts
02-Aug-17 19:25 40.789748 -111.977803 83 4235ft 0kts
02-Aug-17 19:26 40.789748 -111.977802 83 4235ft 0kts
02-Aug-17 19:27 40.789533 -111.977179 153 4235ft 9kts
02-Aug-17 19:28 40.785464 -111.976624 174 4235ft 17kts
02-Aug-17 19:29 40.780638 -111.976066 174 4235ft 9kts
02-Aug-17 19:30 40.777198 -111.975226 174 4235ft 20kts
02-Aug-17 19:31 40.774509 -111.974800 128 4235ft 0kts
02-Aug-17 19:32 40.774509 -111.974798 128 4235ft 0kts
02-Aug-17 19:33 40.775295 -111.973196 356 4235ft 0kts
02-Aug-17 19:34 40.796079 -111.975471 355 4432ft 166kts
02-Aug-17 19:35 40.832754 -112.009816 298 7121ft 186kts
02-Aug-17 19:36 40.855139 -112.082594 287 8916ft 246kts
02-Aug-17 19:37 40.879830 -112.176573 292 10975ft 294kts
02-Aug-17 19:38 40.925175 -112.266669 325 14093ft 305kts
02-Aug-17 19:39 40.994338 -112.335847 317 17086ft 317kts
02-Aug-17 19:40 41.061907 -112.414019 317 19904ft 328kts
02-Aug-17 19:41 41.138523 -112.483716 325 22451ft 341kts
02-Aug-17 19:42 41.220868 -112.561107 320 23477ft 388kts
02-Aug-17 19:43 41.304215 -112.657096 311 25199ft 401kts
02-Aug-17 19:44 41.379780 -112.768466 310 26960ft 410kts
02-Aug-17 19:45 41.456076 -112.883542 309 28521ft 417kts
02-Aug-17 19:46 41.532784 -113.001348 309 29887ft 424kts
02-Aug-17 19:47 41.610846 -113.121753 309 31174ft 430kts
02-Aug-17 19:48 41.688494 -113.240972 308 32891ft 421kts
02-Aug-17 19:49 41.764496 -113.358373 308 34411ft 415kts
02-Aug-17 19:50 41.839506 -113.474878 308 35925ft 408kts
02-Aug-17 19:51 41.912845 -113.589301 308 37255ft 402kts
02-Aug-17 19:52 41.985386 -113.702925 308 38115ft 403kts
02-Aug-17 19:53 42.057893 -113.816942 308 38119ft 397kts
02-Aug-17 19:54 42.129820 -113.930492 307 38119ft 398kts
02-Aug-17 19:55 42.201419 -114.043958 307 38120ft 397kts
02-Aug-17 19:56 42.272918 -114.157648 308 38123ft 398kts
02-Aug-17 19:57 42.344646 -114.271766 307 38126ft 397kts
02-Aug-17 19:58 42.415749 -114.386052 307 38128ft 397kts
02-Aug-17 19:59 42.486872 -114.500591 308 38129ft 398kts
02-Aug-17 20:00 42.560092 -114.613710 308 38127ft 398kts
02-Aug-17 20:01 42.632823 -114.726784 308 38122ft 398kts
02-Aug-17 20:02 42.705400 -114.840184 308 38118ft 398kts
02-Aug-17 20:03 42.778550 -114.953788 308 38115ft 398kts
02-Aug-17 20:04 42.851190 -115.067517 308 38106ft 398kts
02-Aug-17 20:05 42.923897 -115.181971 308 38093ft 398kts
02-Aug-17 20:06 42.996237 -115.296354 308 38077ft 398kts
02-Aug-17 20:07 43.068435 -115.410988 307 38057ft 398kts
02-Aug-17 20:08 43.140588 -115.526009 307 38042ft 397kts
02-Aug-17 20:09 43.212287 -115.640762 307 38045ft 396kts
02-Aug-17 20:10 43.283721 -115.755548 307 38044ft 395kts
02-Aug-17 20:11 43.355162 -115.870578 307 38042ft 394kts
02-Aug-17 20:12 43.426120 -115.985247 307 38036ft 393kts
02-Aug-17 20:13 43.496805 -116.100522 307 38026ft 395kts
02-Aug-17 20:14 43.554738 -116.226440 285 38021ft 390kts
02-Aug-17 20:15 43.580318 -116.372126 283 38014ft 392kts
02-Aug-17 20:16 43.604061 -116.519377 283 38000ft 393kts
02-Aug-17 20:17 43.627237 -116.666784 283 37999ft 394kts
02-Aug-17 20:18 43.650830 -116.814656 283 38001ft 395kts
02-Aug-17 20:19 43.674040 -116.963598 283 38004ft 396kts
02-Aug-17 20:20 43.696854 -117.112205 282 38004ft 396kts
02-Aug-17 20:21 43.719432 -117.260985 282 38005ft 396kts
02-Aug-17 20:22 43.741868 -117.410330 282 38010ft 396kts
02-Aug-17 20:23 43.764034 -117.559368 282 38015ft 396kts
02-Aug-17 20:24 43.785976 -117.708311 282 38025ft 395kts
02-Aug-17 20:25 43.807772 -117.857656 282 38047ft 395kts
02-Aug-17 20:26 43.829245 -118.006239 282 38084ft 394kts
02-Aug-17 20:27 43.850601 -118.155463 282 38130ft 395kts
02-Aug-17 20:28 43.871735 -118.304609 281 38145ft 395kts
02-Aug-17 20:29 43.892716 -118.454214 281 38151ft 397kts
02-Aug-17 20:30 43.913673 -118.605063 281 38150ft 398kts
02-Aug-17 20:31 43.934438 -118.756093 281 38151ft 400kts
02-Aug-17 20:32 43.955075 -118.907769 281 38152ft 401kts
02-Aug-17 20:33 43.975629 -119.060423 281 38151ft 401kts
02-Aug-17 20:34 43.995949 -119.212946 281 38151ft 402kts
02-Aug-17 20:35 44.016010 -119.365164 281 38154ft 400kts
02-Aug-17 20:36 44.035917 -119.517844 280 38155ft 401kts
02-Aug-17 20:37 44.055586 -119.670352 280 38154ft 401kts
02-Aug-17 20:38 44.075111 -119.823426 280 38152ft 400kts
02-Aug-17 20:39 44.094317 -119.975685 280 38150ft 400kts
02-Aug-17 20:40 44.113323 -120.128060 280 38151ft 400kts
02-Aug-17 20:41 44.132213 -120.281243 280 38151ft 401kts
02-Aug-17 20:42 44.150867 -120.434263 280 38150ft 402kts
02-Aug-17 20:43 44.169346 -120.587621 280 38149ft 402kts
02-Aug-17 20:44 44.187716 -120.741895 280 38148ft 403kts
02-Aug-17 20:45 44.206032 -120.895928 280 38145ft 404kts
02-Aug-17 20:46 44.224124 -121.050532 279 38139ft 405kts
02-Aug-17 20:47 44.241784 -121.206155 279 38131ft 406kts
02-Aug-17 20:48 44.289513 -121.345506 307 37411ft 408kts
02-Aug-17 20:49 44.363947 -121.464618 310 34924ft 411kts
02-Aug-17 20:50 44.440184 -121.581109 310 32998ft 402kts
02-Aug-17 20:51 44.515406 -121.694326 311 31151ft 393kts
02-Aug-17 20:52 44.577387 -121.787107 312 29669ft 387kts
02-Aug-17 20:53 44.650081 -121.896462 312 27906ft 379kts
02-Aug-17 20:54 44.732956 -122.021733 312 25877ft 371kts
02-Aug-17 20:55 44.802608 -122.127478 312 24166ft 364kts
02-Aug-17 20:56 44.859342 -122.213922 312 22772ft 358kts
02-Aug-17 20:57 44.889015 -122.366264 276 20789ft 353kts
02-Aug-17 20:58 44.898299 -122.503146 276 18986ft 344kts
02-Aug-17 20:59 44.905707 -122.611913 276 17484ft 327kts
02-Aug-17 21:00 44.914793 -122.740343 276 15683ft 331kts
02-Aug-17 21:01 44.924220 -122.867386 276 13883ft 316kts
02-Aug-17 21:02 44.933458 -122.987974 276 12083ft 303kts
02-Aug-17 21:03 44.942219 -123.104086 276 10497ft 289kts
02-Aug-17 21:04 44.893856 -123.170666 166 8987ft 293kts
02-Aug-17 21:05 44.819521 -123.129595 156 7499ft 279kts
02-Aug-17 21:06 44.749639 -123.088540 156 5993ft 264kts
02-Aug-17 21:07 44.683983 -123.049802 152 4520ft 247kts
02-Aug-17 21:08 44.679355 -122.970036 66 3017ft 223kts
02-Aug-17 21:09 44.701677 -122.894510 64 2506ft 189kts
02-Aug-17 21:10 44.745203 -122.878255 356 2533ft 173kts
02-Aug-17 21:11 44.789306 -122.903855 330 2546ft 168kts
02-Aug-17 21:12 44.828354 -122.935703 331 1881ft 149kts
02-Aug-17 21:13 44.862532 -122.963305 331 1129ft 140kts
02-Aug-17 21:14 44.896315 -122.990544 331 393ft 138kts
02-Aug-17 21:15 44.912087 -123.003307 330 222ft 16kts
02-Aug-17 21:16 44.912868 -123.005325 225 222ft 0kts
02-Aug-17 21:17 44.911547 -123.007200 225 222ft 8kts
02-Aug-17 21:18 44.911103 -123.007676 193 222ft 0kts
02-Aug-17 21:19 44.911102 -123.007676 193 222ft 0kts
02-Aug-17 21:20 44.911101 -123.007677 193 222ft 0kts
02-Aug-17 21:21 44.910652 -123.008191 244 222ft 0kts
02-Aug-17 21:22 44.910605 -123.008329 246 222ft 0kts
02-Aug-17 21:23 44.910605 -123.008329 246 222ft 0kts
02-Aug-17 21:24 44.910605 -123.008329 246 222ft 0kts
02-Aug-17 21:25 44.910605 -123.008329 246 222ft 0kts
02-Aug-17 21:26 44.910605 -123.008329 246 222ft 0kts
02-Aug-17 21:27 44.910605 -123.008329 246 222ft 0kts
02-Aug-17 21:28 44.910605 -123.008329 246 222ft 0kts
02-Aug-17 21:29 44.910605 -123.008329 246 222ft 0kts

Navigation Log

Ident Type
Flight plan parsing failed, navigation log unavailable